sensor_id;sensor_type;location;lat;lon;timestamp;P1;durP1;ratioP1;P2;durP2;ratioP2
30133;SDS011;16946;49.984;10.672;2023-03-22T00:00:30;51.23;;;16.13;;
30133;SDS011;16946;49.984;10.672;2023-03-22T00:01:06;51.57;;;15.83;;
30133;SDS011;16946;49.984;10.672;2023-03-22T00:01:44;80.70;;;17.85;;
30133;SDS011;16946;49.984;10.672;2023-03-22T00:02:15;74.10;;;18.73;;
30133;SDS011;16946;49.984;10.672;2023-03-22T00:02:46;48.95;;;17.42;;
30133;SDS011;16946;49.984;10.672;2023-03-22T00:03:16;37.67;;;14.83;;
30133;SDS011;16946;49.984;10.672;2023-03-22T00:03:47;33.90;;;14.27;;
30133;SDS011;16946;49.984;10.672;2023-03-22T00:04:18;61.25;;;21.00;;
30133;SDS011;16946;49.984;10.672;2023-03-22T00:04:49;56.03;;;21.67;;
30133;SDS011;16946;49.984;10.672;2023-03-22T00:05:20;20.50;;;12.30;;
30133;SDS011;16946;49.984;10.672;2023-03-22T00:05:55;30.47;;;15.97;;
30133;SDS011;16946;49.984;10.672;2023-03-22T00:06:26;26.48;;;13.50;;
30133;SDS011;16946;49.984;10.672;2023-03-22T00:06:56;81.80;;;23.73;;
30133;SDS011;16946;49.984;10.672;2023-03-22T00:07:27;92.90;;;25.60;;
30133;SDS011;16946;49.984;10.672;2023-03-22T00:07:57;56.53;;;21.03;;
30133;SDS011;16946;49.984;10.672;2023-03-22T00:08:28;25.00;;;14.80;;
30133;SDS011;16946;49.984;10.672;2023-03-22T00:08:59;23.77;;;14.43;;
30133;SDS011;16946;49.984;10.672;2023-03-22T00:09:29;22.43;;;13.30;;
30133;SDS011;16946;49.984;10.672;2023-03-22T00:10:00;26.97;;;14.13;;
30133;SDS011;16946;49.984;10.672;2023-03-22T00:10:31;19.10;;;11.50;;
30133;SDS011;16946;49.984;10.672;2023-03-22T00:11:03;14.90;;;12.05;;
30133;SDS011;16946;49.984;10.672;2023-03-22T00:11:34;26.63;;;12.02;;
30133;SDS011;16946;49.984;10.672;2023-03-22T00:12:05;28.03;;;13.20;;
30133;SDS011;16946;49.984;10.672;2023-03-22T00:12:36;64.67;;;16.07;;
30133;SDS011;16946;49.984;10.672;2023-03-22T00:13:08;67.07;;;18.60;;
30133;SDS011;16946;49.984;10.672;2023-03-22T00:13:40;52.53;;;13.20;;
30133;SDS011;16946;49.984;10.672;2023-03-22T00:14:11;91.50;;;17.67;;
30133;SDS011;16946;49.984;10.672;2023-03-22T00:14:42;90.90;;;17.67;;
30133;SDS011;16946;49.984;10.672;2023-03-22T00:15:12;61.50;;;16.23;;
30133;SDS011;16946;49.984;10.672;2023-03-22T00:15:44;125.97;;;19.20;;
30133;SDS011;16946;49.984;10.672;2023-03-22T00:16:18;80.10;;;14.13;;
30133;SDS011;16946;49.984;10.672;2023-03-22T00:16:50;75.90;;;16.25;;
30133;SDS011;16946;49.984;10.672;2023-03-22T00:17:20;80.93;;;15.70;;
30133;SDS011;16946;49.984;10.672;2023-03-22T00:17:51;146.73;;;24.50;;
30133;SDS011;16946;49.984;10.672;2023-03-22T00:18:22;79.63;;;15.87;;
30133;SDS011;16946;49.984;10.672;2023-03-22T00:18:53;140.93;;;20.27;;
30133;SDS011;16946;49.984;10.672;2023-03-22T00:19:23;127.27;;;20.80;;
30133;SDS011;16946;49.984;10.672;2023-03-22T00:19:55;142.63;;;24.95;;
30133;SDS011;16946;49.984;10.672;2023-03-22T00:20:29;111.20;;;21.17;;
30133;SDS011;16946;49.984;10.672;2023-03-22T00:21:02;158.02;;;22.25;;
30133;SDS011;16946;49.984;10.672;2023-03-22T00:21:33;132.03;;;20.83;;
30133;SDS011;16946;49.984;10.672;2023-03-22T00:22:03;120.50;;;22.40;;
30133;SDS011;16946;49.984;10.672;2023-03-22T00:22:35;122.03;;;22.10;;
30133;SDS011;16946;49.984;10.672;2023-03-22T00:23:06;129.40;;;22.07;;
30133;SDS011;16946;49.984;10.672;2023-03-22T00:23:38;99.63;;;18.40;;
30133;SDS011;16946;49.984;10.672;2023-03-22T00:24:08;67.03;;;18.07;;
30133;SDS011;16946;49.984;10.672;2023-03-22T00:24:39;78.20;;;16.93;;
30133;SDS011;16946;49.984;10.672;2023-03-22T00:25:10;69.23;;;19.20;;
30133;SDS011;16946;49.984;10.672;2023-03-22T00:25:41;62.17;;;18.77;;
30133;SDS011;16946;49.984;10.672;2023-03-22T00:26:13;74.13;;;17.45;;
30133;SDS011;16946;49.984;10.672;2023-03-22T00:26:44;64.30;;;14.97;;
30133;SDS011;16946;49.984;10.672;2023-03-22T00:27:16;38.10;;;13.35;;
30133;SDS011;16946;49.984;10.672;2023-03-22T00:27:46;74.03;;;16.00;;
30133;SDS011;16946;49.984;10.672;2023-03-22T00:28:17;37.67;;;14.77;;
30133;SDS011;16946;49.984;10.672;2023-03-22T00:28:48;45.23;;;12.87;;
30133;SDS011;16946;49.984;10.672;2023-03-22T00:29:18;31.07;;;11.97;;
30133;SDS011;16946;49.984;10.672;2023-03-22T00:29:51;26.52;;;12.82;;
30133;SDS011;16946;49.984;10.672;2023-03-22T00:30:22;40.90;;;12.80;;
30133;SDS011;16946;49.984;10.672;2023-03-22T00:30:53;36.40;;;13.33;;
30133;SDS011;16946;49.984;10.672;2023-03-22T00:31:26;29.60;;;12.02;;
30133;SDS011;16946;49.984;10.672;2023-03-22T00:31:57;41.70;;;15.40;;
30133;SDS011;16946;49.984;10.672;2023-03-22T00:32:27;75.37;;;19.97;;
30133;SDS011;16946;49.984;10.672;2023-03-22T00:32:58;49.70;;;14.13;;
30133;SDS011;16946;49.984;10.672;2023-03-22T00:33:29;74.47;;;18.07;;
30133;SDS011;16946;49.984;10.672;2023-03-22T00:34:00;49.15;;;14.75;;
30133;SDS011;16946;49.984;10.672;2023-03-22T00:34:31;65.70;;;15.73;;
30133;SDS011;16946;49.984;10.672;2023-03-22T00:35:02;56.10;;;13.73;;
30133;SDS011;16946;49.984;10.672;2023-03-22T00:35:34;49.67;;;14.73;;
30133;SDS011;16946;49.984;10.672;2023-03-22T00:36:06;53.37;;;17.00;;
30133;SDS011;16946;49.984;10.672;2023-03-22T00:36:38;51.08;;;16.77;;
30133;SDS011;16946;49.984;10.672;2023-03-22T00:37:08;59.10;;;16.40;;
30133;SDS011;16946;49.984;10.672;2023-03-22T00:37:39;39.23;;;13.63;;
30133;SDS011;16946;49.984;10.672;2023-03-22T00:38:09;58.63;;;15.17;;
30133;SDS011;16946;49.984;10.672;2023-03-22T00:38:43;48.45;;;18.58;;
30133;SDS011;16946;49.984;10.672;2023-03-22T00:39:13;50.23;;;17.63;;
30133;SDS011;16946;49.984;10.672;2023-03-22T00:39:44;37.85;;;14.30;;
30133;SDS011;16946;49.984;10.672;2023-03-22T00:40:15;77.20;;;20.80;;
30133;SDS011;16946;49.984;10.672;2023-03-22T00:40:46;77.15;;;23.63;;
30133;SDS011;16946;49.984;10.672;2023-03-22T00:41:17;66.40;;;21.87;;
30133;SDS011;16946;49.984;10.672;2023-03-22T00:41:49;66.68;;;19.63;;
30133;SDS011;16946;49.984;10.672;2023-03-22T00:42:20;74.83;;;21.57;;
30133;SDS011;16946;49.984;10.672;2023-03-22T00:42:50;61.83;;;19.37;;
30133;SDS011;16946;49.984;10.672;2023-03-22T00:43:21;77.10;;;24.57;;
30133;SDS011;16946;49.984;10.672;2023-03-22T00:43:52;63.47;;;19.50;;
30133;SDS011;16946;49.984;10.672;2023-03-22T00:44:22;87.87;;;23.27;;
30133;SDS011;16946;49.984;10.672;2023-03-22T00:44:53;116.10;;;24.00;;
30133;SDS011;16946;49.984;10.672;2023-03-22T00:45:23;88.43;;;20.73;;
30133;SDS011;16946;49.984;10.672;2023-03-22T00:45:54;95.27;;;25.67;;
30133;SDS011;16946;49.984;10.672;2023-03-22T00:46:25;53.63;;;15.70;;
30133;SDS011;16946;49.984;10.672;2023-03-22T00:46:56;50.00;;;15.10;;
30133;SDS011;16946;49.984;10.672;2023-03-22T00:47:26;74.67;;;18.40;;
30133;SDS011;16946;49.984;10.672;2023-03-22T00:47:57;66.57;;;16.30;;
30133;SDS011;16946;49.984;10.672;2023-03-22T00:48:27;56.30;;;14.47;;
30133;SDS011;16946;49.984;10.672;2023-03-22T00:48:58;61.97;;;15.87;;
30133;SDS011;16946;49.984;10.672;2023-03-22T00:49:29;121.40;;;22.60;;
30133;SDS011;16946;49.984;10.672;2023-03-22T00:50:00;127.10;;;21.45;;
30133;SDS011;16946;49.984;10.672;2023-03-22T00:50:31;142.65;;;20.70;;
30133;SDS011;16946;49.984;10.672;2023-03-22T00:51:02;102.63;;;21.27;;
30133;SDS011;16946;49.984;10.672;2023-03-22T00:51:33;82.30;;;18.52;;
30133;SDS011;16946;49.984;10.672;2023-03-22T00:52:03;101.77;;;21.10;;
30133;SDS011;16946;49.984;10.672;2023-03-22T00:52:34;73.27;;;15.53;;
30133;SDS011;16946;49.984;10.672;2023-03-22T00:53:05;52.63;;;13.77;;
30133;SDS011;16946;49.984;10.672;2023-03-22T00:53:35;61.27;;;14.97;;
30133;SDS011;16946;49.984;10.672;2023-03-22T00:54:07;75.38;;;16.50;;
30133;SDS011;16946;49.984;10.672;2023-03-22T00:54:37;106.03;;;21.07;;
30133;SDS011;16946;49.984;10.672;2023-03-22T00:55:08;77.47;;;18.37;;
30133;SDS011;16946;49.984;10.672;2023-03-22T00:55:39;77.13;;;19.00;;
30133;SDS011;16946;49.984;10.672;2023-03-22T00:56:10;53.33;;;17.47;;
30133;SDS011;16946;49.984;10.672;2023-03-22T00:56:44;77.32;;;21.83;;
30133;SDS011;16946;49.984;10.672;2023-03-22T00:57:15;53.47;;;18.73;;
30133;SDS011;16946;49.984;10.672;2023-03-22T00:57:46;31.63;;;14.30;;
30133;SDS011;16946;49.984;10.672;2023-03-22T00:58:17;38.13;;;13.33;;
30133;SDS011;16946;49.984;10.672;2023-03-22T00:58:47;39.10;;;13.80;;
30133;SDS011;16946;49.984;10.672;2023-03-22T00:59:18;37.90;;;15.73;;
30133;SDS011;16946;49.984;10.672;2023-03-22T00:59:49;32.70;;;12.23;;
30133;SDS011;16946;49.984;10.672;2023-03-22T01:00:21;67.00;;;19.35;;
30133;SDS011;16946;49.984;10.672;2023-03-22T01:00:53;44.83;;;16.75;;
30133;SDS011;16946;49.984;10.672;2023-03-22T01:01:23;48.10;;;18.10;;
30133;SDS011;16946;49.984;10.672;2023-03-22T01:01:54;77.17;;;17.50;;
30133;SDS011;16946;49.984;10.672;2023-03-22T01:02:27;44.15;;;17.33;;
30133;SDS011;16946;49.984;10.672;2023-03-22T01:02:59;41.72;;;17.10;;
30133;SDS011;16946;49.984;10.672;2023-03-22T01:03:33;68.28;;;20.35;;
30133;SDS011;16946;49.984;10.672;2023-03-22T01:04:04;54.23;;;16.60;;
30133;SDS011;16946;49.984;10.672;2023-03-22T01:04:35;54.47;;;18.97;;
30133;SDS011;16946;49.984;10.672;2023-03-22T01:05:05;61.80;;;16.70;;
30133;SDS011;16946;49.984;10.672;2023-03-22T01:05:36;24.75;;;13.65;;
30133;SDS011;16946;49.984;10.672;2023-03-22T01:06:07;35.63;;;13.60;;
30133;SDS011;16946;49.984;10.672;2023-03-22T01:06:37;52.53;;;16.13;;
30133;SDS011;16946;49.984;10.672;2023-03-22T01:07:08;53.50;;;14.50;;
30133;SDS011;16946;49.984;10.672;2023-03-22T01:07:38;69.60;;;21.10;;
30133;SDS011;16946;49.984;10.672;2023-03-22T01:08:11;84.07;;;26.75;;
30133;SDS011;16946;49.984;10.672;2023-03-22T01:08:43;99.50;;;21.88;;
30133;SDS011;16946;49.984;10.672;2023-03-22T01:09:14;58.27;;;18.77;;
30133;SDS011;16946;49.984;10.672;2023-03-22T01:09:44;39.07;;;14.10;;
30133;SDS011;16946;49.984;10.672;2023-03-22T01:10:17;35.00;;;15.05;;
30133;SDS011;16946;49.984;10.672;2023-03-22T01:10:48;34.13;;;14.15;;
30133;SDS011;16946;49.984;10.672;2023-03-22T01:11:19;26.88;;;13.18;;
30133;SDS011;16946;49.984;10.672;2023-03-22T01:11:50;24.07;;;12.50;;
30133;SDS011;16946;49.984;10.672;2023-03-22T01:12:20;54.33;;;20.40;;
30133;SDS011;16946;49.984;10.672;2023-03-22T01:12:51;47.73;;;16.43;;
30133;SDS011;16946;49.984;10.672;2023-03-22T01:13:21;36.70;;;13.83;;
30133;SDS011;16946;49.984;10.672;2023-03-22T01:13:52;36.67;;;12.83;;
30133;SDS011;16946;49.984;10.672;2023-03-22T01:14:24;31.77;;;14.75;;
30133;SDS011;16946;49.984;10.672;2023-03-22T01:14:54;25.30;;;12.48;;
30133;SDS011;16946;49.984;10.672;2023-03-22T01:15:25;57.97;;;18.03;;
30133;SDS011;16946;49.984;10.672;2023-03-22T01:15:56;89.20;;;20.90;;
30133;SDS011;16946;49.984;10.672;2023-03-22T01:16:26;78.67;;;19.47;;
30133;SDS011;16946;49.984;10.672;2023-03-22T01:16:57;58.73;;;19.50;;
30133;SDS011;16946;49.984;10.672;2023-03-22T01:17:27;64.87;;;19.47;;
30133;SDS011;16946;49.984;10.672;2023-03-22T01:17:58;70.93;;;18.83;;
30133;SDS011;16946;49.984;10.672;2023-03-22T01:18:29;84.78;;;19.35;;
30133;SDS011;16946;49.984;10.672;2023-03-22T01:18:59;79.47;;;19.90;;
30133;SDS011;16946;49.984;10.672;2023-03-22T01:19:30;59.10;;;18.70;;
30133;SDS011;16946;49.984;10.672;2023-03-22T01:20:00;42.27;;;17.23;;
30133;SDS011;16946;49.984;10.672;2023-03-22T01:20:31;23.87;;;13.37;;
30133;SDS011;16946;49.984;10.672;2023-03-22T01:21:02;22.40;;;11.88;;
30133;SDS011;16946;49.984;10.672;2023-03-22T01:21:33;47.40;;;16.53;;
30133;SDS011;16946;49.984;10.672;2023-03-22T01:22:04;50.70;;;17.27;;
30133;SDS011;16946;49.984;10.672;2023-03-22T01:22:35;55.72;;;19.10;;
30133;SDS011;16946;49.984;10.672;2023-03-22T01:23:06;41.03;;;15.70;;
30133;SDS011;16946;49.984;10.672;2023-03-22T01:23:36;26.10;;;13.43;;
30133;SDS011;16946;49.984;10.672;2023-03-22T01:24:07;31.23;;;12.47;;
30133;SDS011;16946;49.984;10.672;2023-03-22T01:24:37;68.37;;;17.90;;
30133;SDS011;16946;49.984;10.672;2023-03-22T01:25:08;51.67;;;16.67;;
30133;SDS011;16946;49.984;10.672;2023-03-22T01:25:39;40.00;;;13.27;;
30133;SDS011;16946;49.984;10.672;2023-03-22T01:26:10;43.67;;;15.70;;
30133;SDS011;16946;49.984;10.672;2023-03-22T01:26:40;57.47;;;14.70;;
30133;SDS011;16946;49.984;10.672;2023-03-22T01:27:11;76.00;;;18.27;;
30133;SDS011;16946;49.984;10.672;2023-03-22T01:27:41;70.97;;;17.60;;
30133;SDS011;16946;49.984;10.672;2023-03-22T01:28:12;73.17;;;18.03;;
30133;SDS011;16946;49.984;10.672;2023-03-22T01:28:42;72.73;;;17.83;;
30133;SDS011;16946;49.984;10.672;2023-03-22T01:29:13;83.93;;;17.03;;
30133;SDS011;16946;49.984;10.672;2023-03-22T01:29:43;47.60;;;15.40;;
30133;SDS011;16946;49.984;10.672;2023-03-22T01:30:14;44.90;;;14.10;;
30133;SDS011;16946;49.984;10.672;2023-03-22T01:30:45;55.40;;;17.40;;
30133;SDS011;16946;49.984;10.672;2023-03-22T01:31:15;39.67;;;14.83;;
30133;SDS011;16946;49.984;10.672;2023-03-22T01:31:46;34.90;;;14.37;;
30133;SDS011;16946;49.984;10.672;2023-03-22T01:32:16;38.97;;;15.47;;
30133;SDS011;16946;49.984;10.672;2023-03-22T01:32:47;30.20;;;14.17;;
30133;SDS011;16946;49.984;10.672;2023-03-22T01:33:17;39.23;;;16.50;;
30133;SDS011;16946;49.984;10.672;2023-03-22T01:33:48;32.07;;;13.97;;
30133;SDS011;16946;49.984;10.672;2023-03-22T01:34:19;31.83;;;14.47;;
30133;SDS011;16946;49.984;10.672;2023-03-22T01:34:49;33.70;;;14.57;;
30133;SDS011;16946;49.984;10.672;2023-03-22T01:35:21;31.27;;;13.52;;
30133;SDS011;16946;49.984;10.672;2023-03-22T01:35:51;33.90;;;15.80;;
30133;SDS011;16946;49.984;10.672;2023-03-22T01:36:22;25.83;;;14.67;;
30133;SDS011;16946;49.984;10.672;2023-03-22T01:36:52;38.87;;;17.10;;
30133;SDS011;16946;49.984;10.672;2023-03-22T01:37:23;42.57;;;14.03;;
30133;SDS011;16946;49.984;10.672;2023-03-22T01:37:56;40.60;;;15.32;;
30133;SDS011;16946;49.984;10.672;2023-03-22T01:38:27;50.93;;;13.27;;
30133;SDS011;16946;49.984;10.672;2023-03-22T01:38:57;37.77;;;12.80;;
30133;SDS011;16946;49.984;10.672;2023-03-22T01:39:28;26.97;;;12.67;;
30133;SDS011;16946;49.984;10.672;2023-03-22T01:39:58;32.83;;;14.73;;
30133;SDS011;16946;49.984;10.672;2023-03-22T01:40:29;35.33;;;12.33;;
30133;SDS011;16946;49.984;10.672;2023-03-22T01:41:00;26.27;;;12.67;;
30133;SDS011;16946;49.984;10.672;2023-03-22T01:41:30;31.33;;;11.80;;
30133;SDS011;16946;49.984;10.672;2023-03-22T01:42:03;30.85;;;11.32;;
30133;SDS011;16946;49.984;10.672;2023-03-22T01:42:34;20.30;;;11.47;;
30133;SDS011;16946;49.984;10.672;2023-03-22T01:43:15;32.70;;;13.00;;
30133;SDS011;16946;49.984;10.672;2023-03-22T01:44:41;30.90;;;11.93;;
30133;SDS011;16946;49.984;10.672;2023-03-22T01:45:48;41.40;;;16.03;;
30133;SDS011;16946;49.984;10.672;2023-03-22T01:46:19;39.00;;;12.82;;
30133;SDS011;16946;49.984;10.672;2023-03-22T01:46:51;35.88;;;12.52;;
30133;SDS011;16946;49.984;10.672;2023-03-22T01:47:21;50.57;;;14.33;;
30133;SDS011;16946;49.984;10.672;2023-03-22T01:47:55;59.33;;;17.87;;
30133;SDS011;16946;49.984;10.672;2023-03-22T01:48:45;49.50;;;16.75;;
30133;SDS011;16946;49.984;10.672;2023-03-22T01:49:18;44.22;;;14.05;;
30133;SDS011;16946;49.984;10.672;2023-03-22T01:49:58;47.55;;;15.07;;
30133;SDS011;16946;49.984;10.672;2023-03-22T01:50:29;46.27;;;15.60;;
30133;SDS011;16946;49.984;10.672;2023-03-22T01:51:39;37.00;;;14.63;;
30133;SDS011;16946;49.984;10.672;2023-03-22T01:52:11;25.70;;;14.25;;
30133;SDS011;16946;49.984;10.672;2023-03-22T01:52:43;39.78;;;14.23;;
30133;SDS011;16946;49.984;10.672;2023-03-22T01:53:14;23.07;;;13.27;;
30133;SDS011;16946;49.984;10.672;2023-03-22T01:53:49;27.17;;;14.85;;
30133;SDS011;16946;49.984;10.672;2023-03-22T01:54:39;36.75;;;14.38;;
30133;SDS011;16946;49.984;10.672;2023-03-22T01:55:16;31.65;;;13.95;;
30133;SDS011;16946;49.984;10.672;2023-03-22T01:55:47;29.33;;;14.00;;
30133;SDS011;16946;49.984;10.672;2023-03-22T01:56:18;47.20;;;15.53;;
30133;SDS011;16946;49.984;10.672;2023-03-22T01:56:52;32.95;;;14.30;;
30133;SDS011;16946;49.984;10.672;2023-03-22T01:57:23;39.23;;;15.23;;
30133;SDS011;16946;49.984;10.672;2023-03-22T01:57:54;33.60;;;16.55;;
30133;SDS011;16946;49.984;10.672;2023-03-22T01:58:25;33.33;;;16.07;;
30133;SDS011;16946;49.984;10.672;2023-03-22T01:58:56;39.20;;;16.92;;
30133;SDS011;16946;49.984;10.672;2023-03-22T01:59:26;54.10;;;19.57;;
30133;SDS011;16946;49.984;10.672;2023-03-22T01:59:58;46.15;;;17.63;;
30133;SDS011;16946;49.984;10.672;2023-03-22T02:00:29;50.90;;;17.80;;
30133;SDS011;16946;49.984;10.672;2023-03-22T02:01:00;54.15;;;19.50;;
30133;SDS011;16946;49.984;10.672;2023-03-22T02:01:32;55.10;;;17.88;;
30133;SDS011;16946;49.984;10.672;2023-03-22T02:02:04;58.47;;;19.35;;
30133;SDS011;16946;49.984;10.672;2023-03-22T02:02:36;57.15;;;18.85;;
30133;SDS011;16946;49.984;10.672;2023-03-22T02:03:06;52.00;;;18.57;;
30133;SDS011;16946;49.984;10.672;2023-03-22T02:03:48;80.17;;;18.73;;
30133;SDS011;16946;49.984;10.672;2023-03-22T02:04:44;40.72;;;16.35;;
30133;SDS011;16946;49.984;10.672;2023-03-22T02:05:19;70.40;;;19.83;;
30133;SDS011;16946;49.984;10.672;2023-03-22T02:05:53;54.60;;;20.17;;
30133;SDS011;16946;49.984;10.672;2023-03-22T02:06:23;46.03;;;17.73;;
30133;SDS011;16946;49.984;10.672;2023-03-22T02:06:55;44.38;;;17.20;;
30133;SDS011;16946;49.984;10.672;2023-03-22T02:07:28;45.13;;;16.15;;
30133;SDS011;16946;49.984;10.672;2023-03-22T02:08:00;52.05;;;18.42;;
30133;SDS011;16946;49.984;10.672;2023-03-22T02:08:31;39.60;;;17.42;;
30133;SDS011;16946;49.984;10.672;2023-03-22T02:09:03;56.97;;;19.70;;
30133;SDS011;16946;49.984;10.672;2023-03-22T02:09:35;44.50;;;16.73;;
30133;SDS011;16946;49.984;10.672;2023-03-22T02:10:11;47.63;;;19.08;;
30133;SDS011;16946;49.984;10.672;2023-03-22T02:10:44;58.13;;;20.20;;
30133;SDS011;16946;49.984;10.672;2023-03-22T02:11:16;54.40;;;17.00;;
30133;SDS011;16946;49.984;10.672;2023-03-22T02:14:23;75.88;;;21.40;;
30133;SDS011;16946;49.984;10.672;2023-03-22T02:15:05;49.58;;;18.40;;
30133;SDS011;16946;49.984;10.672;2023-03-22T02:18:00;62.83;;;20.10;;
30133;SDS011;16946;49.984;10.672;2023-03-22T02:18:50;58.20;;;18.55;;
30133;SDS011;16946;49.984;10.672;2023-03-22T02:28:07;25.50;;;13.60;;
30133;SDS011;16946;49.984;10.672;2023-03-22T02:28:48;23.70;;;15.60;;
30133;SDS011;16946;49.984;10.672;2023-03-22T02:30:54;35.00;;;16.83;;
30133;SDS011;16946;49.984;10.672;2023-03-22T02:32:25;27.88;;;15.43;;
30133;SDS011;16946;49.984;10.672;2023-03-22T02:33:21;21.38;;;15.00;;
30133;SDS011;16946;49.984;10.672;2023-03-22T02:34:25;28.05;;;16.40;;
30133;SDS011;16946;49.984;10.672;2023-03-22T02:38:12;22.65;;;15.20;;
30133;SDS011;16946;49.984;10.672;2023-03-22T02:41:27;17.13;;;12.93;;
30133;SDS011;16946;49.984;10.672;2023-03-22T02:42:31;19.33;;;14.55;;
30133;SDS011;16946;49.984;10.672;2023-03-22T02:43:13;19.77;;;14.98;;
30133;SDS011;16946;49.984;10.672;2023-03-22T02:44:39;20.55;;;14.65;;
30133;SDS011;16946;49.984;10.672;2023-03-22T02:46:16;17.97;;;14.23;;
30133;SDS011;16946;49.984;10.672;2023-03-22T02:46:57;16.58;;;13.02;;
30133;SDS011;16946;49.984;10.672;2023-03-22T02:47:38;15.00;;;12.75;;
30133;SDS011;16946;49.984;10.672;2023-03-22T02:48:26;16.27;;;13.27;;
30133;SDS011;16946;49.984;10.672;2023-03-22T02:49:03;15.98;;;13.10;;
30133;SDS011;16946;49.984;10.672;2023-03-22T02:50:34;16.00;;;12.82;;
30133;SDS011;16946;49.984;10.672;2023-03-22T02:51:16;17.38;;;13.95;;
30133;SDS011;16946;49.984;10.672;2023-03-22T02:51:57;16.13;;;13.13;;
30133;SDS011;16946;49.984;10.672;2023-03-22T02:52:45;17.00;;;13.88;;
30133;SDS011;16946;49.984;10.672;2023-03-22T02:54:01;15.15;;;12.32;;
30133;SDS011;16946;49.984;10.672;2023-03-22T02:54:40;15.73;;;13.60;;
30133;SDS011;16946;49.984;10.672;2023-03-22T02:55:40;17.05;;;13.45;;
30133;SDS011;16946;49.984;10.672;2023-03-22T02:56:17;16.00;;;13.75;;
30133;SDS011;16946;49.984;10.672;2023-03-22T02:57:00;15.00;;;13.10;;
30133;SDS011;16946;49.984;10.672;2023-03-22T02:57:39;14.82;;;12.45;;
30133;SDS011;16946;49.984;10.672;2023-03-22T02:58:34;17.80;;;14.00;;
30133;SDS011;16946;49.984;10.672;2023-03-22T02:59:08;18.65;;;13.40;;
30133;SDS011;16946;49.984;10.672;2023-03-22T02:59:40;15.73;;;13.50;;
30133;SDS011;16946;49.984;10.672;2023-03-22T03:00:12;15.88;;;13.10;;
30133;SDS011;16946;49.984;10.672;2023-03-22T03:00:45;16.13;;;13.38;;
30133;SDS011;16946;49.984;10.672;2023-03-22T03:01:21;15.35;;;13.65;;
30133;SDS011;16946;49.984;10.672;2023-03-22T03:01:58;15.02;;;13.43;;
30133;SDS011;16946;49.984;10.672;2023-03-22T03:02:31;14.30;;;12.80;;
30133;SDS011;16946;49.984;10.672;2023-03-22T03:03:04;14.20;;;12.70;;
30133;SDS011;16946;49.984;10.672;2023-03-22T03:03:40;15.30;;;13.25;;
30133;SDS011;16946;49.984;10.672;2023-03-22T03:04:15;14.50;;;12.48;;
30133;SDS011;16946;49.984;10.672;2023-03-22T03:04:53;14.55;;;12.93;;
30133;SDS011;16946;49.984;10.672;2023-03-22T03:05:25;15.02;;;12.63;;
30133;SDS011;16946;49.984;10.672;2023-03-22T03:06:00;15.07;;;13.15;;
30133;SDS011;16946;49.984;10.672;2023-03-22T03:06:37;15.38;;;13.32;;
30133;SDS011;16946;49.984;10.672;2023-03-22T03:07:15;13.25;;;11.50;;
30133;SDS011;16946;49.984;10.672;2023-03-22T03:07:55;13.73;;;12.13;;
30133;SDS011;16946;49.984;10.672;2023-03-22T03:08:28;14.10;;;11.02;;
30133;SDS011;16946;49.984;10.672;2023-03-22T03:08:59;14.10;;;12.68;;
30133;SDS011;16946;49.984;10.672;2023-03-22T03:09:34;14.18;;;12.13;;
30133;SDS011;16946;49.984;10.672;2023-03-22T03:10:08;13.18;;;11.75;;
30133;SDS011;16946;49.984;10.672;2023-03-22T03:10:41;13.98;;;12.13;;
30133;SDS011;16946;49.984;10.672;2023-03-22T03:11:13;12.93;;;11.38;;
30133;SDS011;16946;49.984;10.672;2023-03-22T03:11:46;14.03;;;12.30;;
30133;SDS011;16946;49.984;10.672;2023-03-22T03:12:23;12.85;;;11.48;;
30133;SDS011;16946;49.984;10.672;2023-03-22T03:12:54;14.65;;;12.02;;
30133;SDS011;16946;49.984;10.672;2023-03-22T03:13:26;13.00;;;11.70;;
30133;SDS011;16946;49.984;10.672;2023-03-22T03:13:57;13.23;;;11.53;;
30133;SDS011;16946;49.984;10.672;2023-03-22T03:14:29;12.80;;;11.33;;
30133;SDS011;16946;49.984;10.672;2023-03-22T03:15:00;13.18;;;11.77;;
30133;SDS011;16946;49.984;10.672;2023-03-22T03:15:31;12.90;;;11.50;;
30133;SDS011;16946;49.984;10.672;2023-03-22T03:16:02;13.90;;;12.00;;
30133;SDS011;16946;49.984;10.672;2023-03-22T03:16:35;12.60;;;11.30;;
30133;SDS011;16946;49.984;10.672;2023-03-22T03:18:46;12.32;;;11.00;;
30133;SDS011;16946;49.984;10.672;2023-03-22T03:19:34;14.45;;;11.80;;
30133;SDS011;16946;49.984;10.672;2023-03-22T03:20:21;11.90;;;10.70;;
30133;SDS011;16946;49.984;10.672;2023-03-22T03:21:25;12.30;;;10.63;;
30133;SDS011;16946;49.984;10.672;2023-03-22T03:22:24;11.93;;;10.32;;
30133;SDS011;16946;49.984;10.672;2023-03-22T03:23:13;12.77;;;11.05;;
30133;SDS011;16946;49.984;10.672;2023-03-22T03:24:09;12.30;;;11.00;;
30133;SDS011;16946;49.984;10.672;2023-03-22T03:25:20;10.68;;;9.55;;
30133;SDS011;16946;49.984;10.672;2023-03-22T03:26:26;12.45;;;10.80;;
30133;SDS011;16946;49.984;10.672;2023-03-22T03:27:06;11.98;;;10.77;;
30133;SDS011;16946;49.984;10.672;2023-03-22T03:27:57;12.48;;;11.18;;
30133;SDS011;16946;49.984;10.672;2023-03-22T03:29:38;13.23;;;11.87;;
30133;SDS011;16946;49.984;10.672;2023-03-22T03:30:15;11.45;;;10.25;;
30133;SDS011;16946;49.984;10.672;2023-03-22T03:31:05;11.18;;;9.98;;
30133;SDS011;16946;49.984;10.672;2023-03-22T03:31:44;11.88;;;10.68;;
30133;SDS011;16946;49.984;10.672;2023-03-22T03:33:08;12.85;;;10.55;;
30133;SDS011;16946;49.984;10.672;2023-03-22T03:33:25;11.60;;;10.40;;
30133;SDS011;16946;49.984;10.672;2023-03-22T03:34:01;12.73;;;11.00;;
30133;SDS011;16946;49.984;10.672;2023-03-22T03:34:57;12.63;;;9.73;;
30133;SDS011;16946;49.984;10.672;2023-03-22T03:35:40;13.10;;;11.02;;
30133;SDS011;16946;49.984;10.672;2023-03-22T03:36:17;13.82;;;11.98;;
30133;SDS011;16946;49.984;10.672;2023-03-22T03:36:52;11.77;;;10.57;;
30133;SDS011;16946;49.984;10.672;2023-03-22T03:37:36;13.38;;;12.02;;
30133;SDS011;16946;49.984;10.672;2023-03-22T03:38:14;60.83;;;54.70;;
30133;SDS011;16946;49.984;10.672;2023-03-22T03:38:52;20.20;;;18.30;;
30133;SDS011;16946;49.984;10.672;2023-03-22T03:39:26;14.00;;;12.50;;
30133;SDS011;16946;49.984;10.672;2023-03-22T03:40:03;13.75;;;12.13;;
30133;SDS011;16946;49.984;10.672;2023-03-22T03:40:40;12.85;;;11.48;;
30133;SDS011;16946;49.984;10.672;2023-03-22T03:41:15;11.85;;;10.65;;
30133;SDS011;16946;49.984;10.672;2023-03-22T03:41:49;13.02;;;11.70;;
30133;SDS011;16946;49.984;10.672;2023-03-22T03:42:22;13.30;;;11.15;;
30133;SDS011;16946;49.984;10.672;2023-03-22T03:42:56;13.15;;;11.25;;
30133;SDS011;16946;49.984;10.672;2023-03-22T03:43:30;12.55;;;10.90;;
30133;SDS011;16946;49.984;10.672;2023-03-22T03:44:03;13.77;;;11.05;;
30133;SDS011;16946;49.984;10.672;2023-03-22T03:44:35;13.77;;;11.35;;
30133;SDS011;16946;49.984;10.672;2023-03-22T03:45:07;11.77;;;10.52;;
30133;SDS011;16946;49.984;10.672;2023-03-22T03:45:38;14.20;;;10.88;;
30133;SDS011;16946;49.984;10.672;2023-03-22T03:46:09;12.07;;;10.88;;